sensor_id;sensor_type;location;lat;lon;timestamp;temperature;humidity
23283;DHT22;11810;51.178;3.878;2022-09-13T00:01:55;19.10;99.90
23283;DHT22;11810;51.178;3.878;2022-09-13T00:04:21;19.20;99.90
23283;DHT22;11810;51.178;3.878;2022-09-13T00:06:47;19.20;99.90
23283;DHT22;11810;51.178;3.878;2022-09-13T00:09:13;19.20;99.90
23283;DHT22;11810;51.178;3.878;2022-09-13T00:11:39;19.20;99.90
23283;DHT22;11810;51.178;3.878;2022-09-13T00:14:05;19.20;99.90
23283;DHT22;11810;51.178;3.878;2022-09-13T00:16:31;19.20;99.90
23283;DHT22;11810;51.178;3.878;2022-09-13T00:18:58;19.20;99.90
23283;DHT22;11810;51.178;3.878;2022-09-13T00:21:24;19.30;99.90
23283;DHT22;11810;51.178;3.878;2022-09-13T00:23:52;19.30;99.90
23283;DHT22;11810;51.178;3.878;2022-09-13T00:26:21;19.20;99.90
23283;DHT22;11810;51.178;3.878;2022-09-13T00:28:49;19.30;99.90
23283;DHT22;11810;51.178;3.878;2022-09-13T00:31:19;19.50;99.90
23283;DHT22;11810;51.178;3.878;2022-09-13T00:33:45;19.40;99.90
23283;DHT22;11810;51.178;3.878;2022-09-13T00:36:11;19.50;99.90
23283;DHT22;11810;51.178;3.878;2022-09-13T00:38:38;19.50;99.90
23283;DHT22;11810;51.178;3.878;2022-09-13T00:41:06;19.40;99.90
23283;DHT22;11810;51.178;3.878;2022-09-13T00:44:00;19.40;99.90
23283;DHT22;11810;51.178;3.878;2022-09-13T00:51:42;19.10;99.90
23283;DHT22;11810;51.178;3.878;2022-09-13T00:54:11;19.10;99.90
23283;DHT22;11810;51.178;3.878;2022-09-13T00:56:44;19.10;99.90
23283;DHT22;11810;51.178;3.878;2022-09-13T00:59:17;19.10;99.90
23283;DHT22;11810;51.178;3.878;2022-09-13T01:01:52;19.10;99.90
23283;DHT22;11810;51.178;3.878;2022-09-13T01:04:21;19.00;99.90
23283;DHT22;11810;51.178;3.878;2022-09-13T01:06:48;19.10;99.90
23283;DHT22;11810;51.178;3.878;2022-09-13T01:09:16;19.00;99.90
23283;DHT22;11810;51.178;3.878;2022-09-13T01:11:47;19.00;99.90
23283;DHT22;11810;51.178;3.878;2022-09-13T01:14:17;19.00;99.90
23283;DHT22;11810;51.178;3.878;2022-09-13T01:16:44;19.00;99.90
23283;DHT22;11810;51.178;3.878;2022-09-13T01:19:10;19.00;99.90
23283;DHT22;11810;51.178;3.878;2022-09-13T01:24:22;19.00;99.90
23283;DHT22;11810;51.178;3.878;2022-09-13T01:37:29;18.80;99.90
23283;DHT22;11810;51.178;3.878;2022-09-13T01:40:57;18.80;99.90
23283;DHT22;11810;51.178;3.878;2022-09-13T01:46:11;18.70;99.90
23283;DHT22;11810;51.178;3.878;2022-09-13T01:51:27;18.60;99.90
23283;DHT22;11810;51.178;3.878;2022-09-13T01:56:35;18.60;99.90
23283;DHT22;11810;51.178;3.878;2022-09-13T01:59:18;18.70;99.90
23283;DHT22;11810;51.178;3.878;2022-09-13T02:01:58;18.70;99.90
23283;DHT22;11810;51.178;3.878;2022-09-13T02:04:32;18.70;99.90
23283;DHT22;11810;51.178;3.878;2022-09-13T02:07:08;18.80;99.90
23283;DHT22;11810;51.178;3.878;2022-09-13T02:09:41;18.70;99.90
23283;DHT22;11810;51.178;3.878;2022-09-13T02:12:15;18.70;99.90
23283;DHT22;11810;51.178;3.878;2022-09-13T02:14:45;18.70;99.90
23283;DHT22;11810;51.178;3.878;2022-09-13T02:17:16;18.70;99.90
23283;DHT22;11810;51.178;3.878;2022-09-13T02:19:58;18.70;99.90
23283;DHT22;11810;51.178;3.878;2022-09-13T02:22:38;18.70;99.90
23283;DHT22;11810;51.178;3.878;2022-09-13T02:25:08;18.80;99.90
23283;DHT22;11810;51.178;3.878;2022-09-13T02:27:36;18.80;99.90
23283;DHT22;11810;51.178;3.878;2022-09-13T02:30:06;18.80;99.90
23283;DHT22;11810;51.178;3.878;2022-09-13T02:35:26;19.00;99.90
23283;DHT22;11810;51.178;3.878;2022-09-13T02:38:02;19.00;99.90
23283;DHT22;11810;51.178;3.878;2022-09-13T02:40:45;19.00;99.90
23283;DHT22;11810;51.178;3.878;2022-09-13T02:43:29;19.00;99.90
23283;DHT22;11810;51.178;3.878;2022-09-13T02:49:02;18.90;99.90
23283;DHT22;11810;51.178;3.878;2022-09-13T02:52:02;18.90;99.90
23283;DHT22;11810;51.178;3.878;2022-09-13T02:54:41;18.80;99.90
23283;DHT22;11810;51.178;3.878;2022-09-13T02:57:14;18.80;99.90
23283;DHT22;11810;51.178;3.878;2022-09-13T02:59:45;19.00;99.90
23283;DHT22;11810;51.178;3.878;2022-09-13T03:02:14;19.00;99.90
23283;DHT22;11810;51.178;3.878;2022-09-13T03:04:41;19.00;99.90
23283;DHT22;11810;51.178;3.878;2022-09-13T03:07:11;19.00;99.90
23283;DHT22;11810;51.178;3.878;2022-09-13T03:09:56;18.90;99.90
23283;DHT22;11810;51.178;3.878;2022-09-13T03:23:22;18.70;99.90
23283;DHT22;11810;51.178;3.878;2022-09-13T03:26:16;18.50;99.90
23283;DHT22;11810;51.178;3.878;2022-09-13T03:29:16;18.60;99.90
23283;DHT22;11810;51.178;3.878;2022-09-13T03:34:49;18.60;99.90
23283;DHT22;11810;51.178;3.878;2022-09-13T03:37:38;18.70;99.90
23283;DHT22;11810;51.178;3.878;2022-09-13T03:40:59;18.70;99.90
23283;DHT22;11810;51.178;3.878;2022-09-13T03:46:17;18.60;99.90
23283;DHT22;11810;51.178;3.878;2022-09-13T03:48:45;18.60;99.90
23283;DHT22;11810;51.178;3.878;2022-09-13T03:51:12;18.60;99.90
23283;DHT22;11810;51.178;3.878;2022-09-13T03:53:44;18.70;99.90
23283;DHT22;11810;51.178;3.878;2022-09-13T03:56:16;18.70;99.90
23283;DHT22;11810;51.178;3.878;2022-09-13T03:58:42;18.50;99.90
23283;DHT22;11810;51.178;3.878;2022-09-13T04:01:08;18.50;99.90
23283;DHT22;11810;51.178;3.878;2022-09-13T04:03:38;18.50;99.90
23283;DHT22;11810;51.178;3.878;2022-09-13T04:06:05;18.50;99.90
23283;DHT22;11810;51.178;3.878;2022-09-13T04:08:31;18.60;99.90
23283;DHT22;11810;51.178;3.878;2022-09-13T04:10:58;18.60;99.90
23283;DHT22;11810;51.178;3.878;2022-09-13T04:13:24;18.60;99.90
23283;DHT22;11810;51.178;3.878;2022-09-13T04:15:50;18.70;99.90
23283;DHT22;11810;51.178;3.878;2022-09-13T04:18:16;18.70;99.90
23283;DHT22;11810;51.178;3.878;2022-09-13T04:20:42;18.70;99.90
23283;DHT22;11810;51.178;3.878;2022-09-13T04:23:08;18.70;99.90
23283;DHT22;11810;51.178;3.878;2022-09-13T04:25:37;18.50;99.90
23283;DHT22;11810;51.178;3.878;2022-09-13T04:28:05;18.60;99.90
23283;DHT22;11810;51.178;3.878;2022-09-13T04:30:31;18.70;99.90
23283;DHT22;11810;51.178;3.878;2022-09-13T04:32:57;18.60;99.90
23283;DHT22;11810;51.178;3.878;2022-09-13T04:35:24;18.60;99.90
23283;DHT22;11810;51.178;3.878;2022-09-13T04:37:53;18.50;99.90
23283;DHT22;11810;51.178;3.878;2022-09-13T04:40:19;18.60;99.90
23283;DHT22;11810;51.178;3.878;2022-09-13T04:42:46;18.50;99.90
23283;DHT22;11810;51.178;3.878;2022-09-13T04:45:12;18.60;99.90
23283;DHT22;11810;51.178;3.878;2022-09-13T04:47:38;18.60;99.90
23283;DHT22;11810;51.178;3.878;2022-09-13T04:50:04;18.60;99.90
23283;DHT22;11810;51.178;3.878;2022-09-13T04:52:32;18.60;99.90
23283;DHT22;11810;51.178;3.878;2022-09-13T04:54:58;18.60;99.90
23283;DHT22;11810;51.178;3.878;2022-09-13T04:57:27;18.70;99.90
23283;DHT22;11810;51.178;3.878;2022-09-13T04:59:53;18.70;99.90
23283;DHT22;11810;51.178;3.878;2022-09-13T05:02:19;18.70;99.90
23283;DHT22;11810;51.178;3.878;2022-09-13T05:04:45;18.80;99.90
23283;DHT22;11810;51.178;3.878;2022-09-13T05:07:11;18.80;99.90
23283;DHT22;11810;51.178;3.878;2022-09-13T05:09:37;18.80;99.90
23283;DHT22;11810;51.178;3.878;2022-09-13T05:12:03;18.70;99.90
23283;DHT22;11810;51.178;3.878;2022-09-13T05:14:29;18.70;99.90
23283;DHT22;11810;51.178;3.878;2022-09-13T05:16:55;18.70;99.90
23283;DHT22;11810;51.178;3.878;2022-09-13T05:19:21;18.70;99.90
23283;DHT22;11810;51.178;3.878;2022-09-13T05:21:47;18.70;99.90
23283;DHT22;11810;51.178;3.878;2022-09-13T05:24:13;18.80;99.90
23283;DHT22;11810;51.178;3.878;2022-09-13T05:26:39;18.80;99.90
23283;DHT22;11810;51.178;3.878;2022-09-13T05:29:05;18.80;99.90
23283;DHT22;11810;51.178;3.878;2022-09-13T05:31:34;18.80;99.90
23283;DHT22;11810;51.178;3.878;2022-09-13T05:34:19;18.80;99.90
23283;DHT22;11810;51.178;3.878;2022-09-13T05:36:45;18.70;99.90
23283;DHT22;11810;51.178;3.878;2022-09-13T05:39:13;18.70;99.90
23283;DHT22;11810;51.178;3.878;2022-09-13T05:41:40;18.70;99.90
23283;DHT22;11810;51.178;3.878;2022-09-13T05:44:06;18.80;99.90
23283;DHT22;11810;51.178;3.878;2022-09-13T05:46:32;18.90;99.90
23283;DHT22;11810;51.178;3.878;2022-09-13T05:48:59;18.90;99.90
23283;DHT22;11810;51.178;3.878;2022-09-13T05:51:25;18.90;99.90
23283;DHT22;11810;51.178;3.878;2022-09-13T05:53:52;18.90;99.90
23283;DHT22;11810;51.178;3.878;2022-09-13T05:56:27;19.00;99.90
23283;DHT22;11810;51.178;3.878;2022-09-13T05:58:54;19.10;99.90
23283;DHT22;11810;51.178;3.878;2022-09-13T06:01:22;19.10;99.90
23283;DHT22;11810;51.178;3.878;2022-09-13T06:03:53;19.00;99.90
23283;DHT22;11810;51.178;3.878;2022-09-13T06:06:20;19.00;99.90
23283;DHT22;11810;51.178;3.878;2022-09-13T06:08:47;19.00;99.90
23283;DHT22;11810;51.178;3.878;2022-09-13T06:11:14;19.00;99.90
23283;DHT22;11810;51.178;3.878;2022-09-13T06:13:40;19.10;99.90
23283;DHT22;11810;51.178;3.878;2022-09-13T06:16:09;19.00;99.90
23283;DHT22;11810;51.178;3.878;2022-09-13T06:18:36;19.10;99.90
23283;DHT22;11810;51.178;3.878;2022-09-13T06:21:14;19.20;99.90
23283;DHT22;11810;51.178;3.878;2022-09-13T06:23:44;19.30;99.90
23283;DHT22;11810;51.178;3.878;2022-09-13T06:26:12;19.30;99.90
23283;DHT22;11810;51.178;3.878;2022-09-13T06:28:39;19.30;99.90
23283;DHT22;11810;51.178;3.878;2022-09-13T06:33:34;19.40;99.90
23283;DHT22;11810;51.178;3.878;2022-09-13T06:36:02;19.50;99.90
23283;DHT22;11810;51.178;3.878;2022-09-13T06:38:28;19.50;99.90
23283;DHT22;11810;51.178;3.878;2022-09-13T06:41:06;19.60;99.90
23283;DHT22;11810;51.178;3.878;2022-09-13T06:43:33;19.70;99.90
23283;DHT22;11810;51.178;3.878;2022-09-13T06:46:06;19.70;99.90
23283;DHT22;11810;51.178;3.878;2022-09-13T06:48:37;19.90;99.90
23283;DHT22;11810;51.178;3.878;2022-09-13T06:51:09;20.00;99.90
23283;DHT22;11810;51.178;3.878;2022-09-13T06:53:36;20.10;99.90
23283;DHT22;11810;51.178;3.878;2022-09-13T06:56:15;20.20;99.90
23283;DHT22;11810;51.178;3.878;2022-09-13T06:58:45;20.30;99.90
23283;DHT22;11810;51.178;3.878;2022-09-13T07:01:26;20.40;99.90
23283;DHT22;11810;51.178;3.878;2022-09-13T07:04:01;20.60;99.90
23283;DHT22;11810;51.178;3.878;2022-09-13T07:06:31;20.70;99.90
23283;DHT22;11810;51.178;3.878;2022-09-13T07:08:59;20.70;99.90
23283;DHT22;11810;51.178;3.878;2022-09-13T07:11:29;20.80;99.90
23283;DHT22;11810;51.178;3.878;2022-09-13T07:13:58;20.90;99.90
23283;DHT22;11810;51.178;3.878;2022-09-13T07:16:26;21.00;99.90
23283;DHT22;11810;51.178;3.878;2022-09-13T07:18:57;21.20;99.90
23283;DHT22;11810;51.178;3.878;2022-09-13T07:21:24;21.30;99.90
23283;DHT22;11810;51.178;3.878;2022-09-13T07:23:51;21.40;99.90
23283;DHT22;11810;51.178;3.878;2022-09-13T07:26:17;21.50;99.90
23283;DHT22;11810;51.178;3.878;2022-09-13T07:28:46;21.70;99.90
23283;DHT22;11810;51.178;3.878;2022-09-13T07:31:13;21.70;99.90
23283;DHT22;11810;51.178;3.878;2022-09-13T07:33:40;21.80;99.90
23283;DHT22;11810;51.178;3.878;2022-09-13T07:36:08;22.00;99.90
23283;DHT22;11810;51.178;3.878;2022-09-13T07:38:35;22.20;99.90
23283;DHT22;11810;51.178;3.878;2022-09-13T07:41:03;22.30;99.90
23283;DHT22;11810;51.178;3.878;2022-09-13T07:43:35;22.50;99.90
23283;DHT22;11810;51.178;3.878;2022-09-13T07:46:03;22.60;99.90
23283;DHT22;11810;51.178;3.878;2022-09-13T07:48:31;22.70;99.90
23283;DHT22;11810;51.178;3.878;2022-09-13T07:53:28;23.20;99.90
23283;DHT22;11810;51.178;3.878;2022-09-13T07:56:05;23.40;99.90
23283;DHT22;11810;51.178;3.878;2022-09-13T07:58:32;23.60;99.90
23283;DHT22;11810;51.178;3.878;2022-09-13T08:03:32;23.90;99.90
23283;DHT22;11810;51.178;3.878;2022-09-13T08:05:58;24.30;99.90
23283;DHT22;11810;51.178;3.878;2022-09-13T08:08:24;24.70;99.90
23283;DHT22;11810;51.178;3.878;2022-09-13T08:10:50;24.90;99.90
23283;DHT22;11810;51.178;3.878;2022-09-13T08:13:16;25.40;99.90
23283;DHT22;11810;51.178;3.878;2022-09-13T08:15:42;25.80;99.90
23283;DHT22;11810;51.178;3.878;2022-09-13T08:18:08;26.40;99.90
23283;DHT22;11810;51.178;3.878;2022-09-13T08:20:36;26.40;99.90
23283;DHT22;11810;51.178;3.878;2022-09-13T08:23:03;26.50;99.90
23283;DHT22;11810;51.178;3.878;2022-09-13T08:25:34;26.50;99.90
23283;DHT22;11810;51.178;3.878;2022-09-13T08:28:08;26.50;99.90
23283;DHT22;11810;51.178;3.878;2022-09-13T08:30:36;26.80;99.90
23283;DHT22;11810;51.178;3.878;2022-09-13T08:33:05;26.80;99.90
23283;DHT22;11810;51.178;3.878;2022-09-13T08:35:32;26.60;99.90
23283;DHT22;11810;51.178;3.878;2022-09-13T08:37:58;26.50;99.90
23283;DHT22;11810;51.178;3.878;2022-09-13T08:40:27;26.50;99.90
23283;DHT22;11810;51.178;3.878;2022-09-13T08:45:49;27.00;99.90
23283;DHT22;11810;51.178;3.878;2022-09-13T08:48:17;27.50;99.90
23283;DHT22;11810;51.178;3.878;2022-09-13T08:50:43;27.80;99.90
23283;DHT22;11810;51.178;3.878;2022-09-13T08:58:53;28.20;99.90
23283;DHT22;11810;51.178;3.878;2022-09-13T09:01:49;28.40;99.90
23283;DHT22;11810;51.178;3.878;2022-09-13T09:07:18;28.70;99.90
23283;DHT22;11810;51.178;3.878;2022-09-13T09:09:54;28.90;99.90
23283;DHT22;11810;51.178;3.878;2022-09-13T09:15:21;30.20;99.90
23283;DHT22;11810;51.178;3.878;2022-09-13T09:20:29;30.90;99.90
23283;DHT22;11810;51.178;3.878;2022-09-13T09:23:00;31.00;99.90
23283;DHT22;11810;51.178;3.878;2022-09-13T09:25:27;31.30;99.90
23283;DHT22;11810;51.178;3.878;2022-09-13T09:27:53;30.90;99.90
23283;DHT22;11810;51.178;3.878;2022-09-13T09:30:19;31.00;99.90
23283;DHT22;11810;51.178;3.878;2022-09-13T09:32:57;31.70;99.90
23283;DHT22;11810;51.178;3.878;2022-09-13T09:38:40;32.70;99.90
23283;DHT22;11810;51.178;3.878;2022-09-13T09:43:49;34.40;99.90
23283;DHT22;11810;51.178;3.878;2022-09-13T09:46:22;34.00;99.90
23283;DHT22;11810;51.178;3.878;2022-09-13T09:48:59;34.30;99.90
23283;DHT22;11810;51.178;3.878;2022-09-13T09:51:27;34.20;99.90
23283;DHT22;11810;51.178;3.878;2022-09-13T09:53:59;34.60;99.90
23283;DHT22;11810;51.178;3.878;2022-09-13T09:56:30;34.70;99.90
23283;DHT22;11810;51.178;3.878;2022-09-13T09:58:57;34.60;99.90
23283;DHT22;11810;51.178;3.878;2022-09-13T10:01:33;34.40;99.90
23283;DHT22;11810;51.178;3.878;2022-09-13T10:04:19;34.40;99.90
23283;DHT22;11810;51.178;3.878;2022-09-13T10:06:46;34.60;99.90
23283;DHT22;11810;51.178;3.878;2022-09-13T10:09:20;34.20;99.90
23283;DHT22;11810;51.178;3.878;2022-09-13T10:11:55;34.10;99.90
23283;DHT22;11810;51.178;3.878;2022-09-13T10:14:43;33.40;99.90
23283;DHT22;11810;51.178;3.878;2022-09-13T10:19:55;31.10;99.90
23283;DHT22;11810;51.178;3.878;2022-09-13T10:22:24;30.70;99.90
23283;DHT22;11810;51.178;3.878;2022-09-13T10:24:50;30.10;99.90
23283;DHT22;11810;51.178;3.878;2022-09-13T10:27:27;30.00;99.90
23283;DHT22;11810;51.178;3.878;2022-09-13T10:29:58;29.80;99.90
23283;DHT22;11810;51.178;3.878;2022-09-13T10:32:26;30.40;99.90
23283;DHT22;11810;51.178;3.878;2022-09-13T10:34:54;30.70;99.90
23283;DHT22;11810;51.178;3.878;2022-09-13T10:37:24;31.90;99.90
23283;DHT22;11810;51.178;3.878;2022-09-13T10:42:57;33.30;99.90
23283;DHT22;11810;51.178;3.878;2022-09-13T10:45:29;33.30;99.90
23283;DHT22;11810;51.178;3.878;2022-09-13T10:48:25;32.80;99.90
23283;DHT22;11810;51.178;3.878;2022-09-13T10:51:07;31.40;99.90
23283;DHT22;11810;51.178;3.878;2022-09-13T10:53:42;31.00;99.90
23283;DHT22;11810;51.178;3.878;2022-09-13T10:56:34;30.40;99.90
23283;DHT22;11810;51.178;3.878;2022-09-13T10:59:22;29.90;99.90
23283;DHT22;11810;51.178;3.878;2022-09-13T11:08:24;29.90;99.90
23283;DHT22;11810;51.178;3.878;2022-09-13T11:10:36;30.20;99.90
23283;DHT22;11810;51.178;3.878;2022-09-13T11:21:08;32.00;99.90
23283;DHT22;11810;51.178;3.878;2022-09-13T11:26:31;31.80;99.90
23283;DHT22;11810;51.178;3.878;2022-09-13T11:29:05;31.00;99.90
23283;DHT22;11810;51.178;3.878;2022-09-13T11:34:19;30.70;99.90
23283;DHT22;11810;51.178;3.878;2022-09-13T11:42:42;31.30;99.90
23283;DHT22;11810;51.178;3.878;2022-09-13T11:45:34;31.50;99.90
23283;DHT22;11810;51.178;3.878;2022-09-13T11:48:19;32.00;99.90
23283;DHT22;11810;51.178;3.878;2022-09-13T11:56:32;34.20;99.90
23283;DHT22;11810;51.178;3.878;2022-09-13T12:04:51;32.70;99.90
23283;DHT22;11810;51.178;3.878;2022-09-13T12:07:32;31.60;99.90
23283;DHT22;11810;51.178;3.878;2022-09-13T12:10:15;31.00;99.90
23283;DHT22;11810;51.178;3.878;2022-09-13T12:12:43;30.80;99.90
23283;DHT22;11810;51.178;3.878;2022-09-13T12:15:21;30.10;99.90
23283;DHT22;11810;51.178;3.878;2022-09-13T12:17:49;29.80;99.90
23283;DHT22;11810;51.178;3.878;2022-09-13T12:20:41;29.30;99.90
23283;DHT22;11810;51.178;3.878;2022-09-13T12:23:15;28.90;99.90
23283;DHT22;11810;51.178;3.878;2022-09-13T12:28:20;28.10;99.90
23283;DHT22;11810;51.178;3.878;2022-09-13T12:30:57;28.10;99.90
23283;DHT22;11810;51.178;3.878;2022-09-13T12:33:25;27.90;99.90
23283;DHT22;11810;51.178;3.878;2022-09-13T12:44:26;27.00;99.90
23283;DHT22;11810;51.178;3.878;2022-09-13T12:47:31;27.00;99.90
23283;DHT22;11810;51.178;3.878;2022-09-13T12:50:18;26.80;99.90
23283;DHT22;11810;51.178;3.878;2022-09-13T12:53:29;26.70;99.90
23283;DHT22;11810;51.178;3.878;2022-09-13T13:01:22;26.60;99.90
23283;DHT22;11810;51.178;3.878;2022-09-13T13:04:22;26.60;99.90
23283;DHT22;11810;51.178;3.878;2022-09-13T13:11:56;26.50;99.90
23283;DHT22;11810;51.178;3.878;2022-09-13T13:19:48;25.80;99.90
23283;DHT22;11810;51.178;3.878;2022-09-13T13:25:35;25.10;99.90
23283;DHT22;11810;51.178;3.878;2022-09-13T13:31:10;25.00;99.90
23283;DHT22;11810;51.178;3.878;2022-09-13T13:39:11;24.90;99.90
23283;DHT22;11810;51.178;3.878;2022-09-13T13:42:23;24.70;99.90
23283;DHT22;11810;51.178;3.878;2022-09-13T13:44:57;24.70;99.90
23283;DHT22;11810;51.178;3.878;2022-09-13T13:55:44;24.20;99.90
23283;DHT22;11810;51.178;3.878;2022-09-13T13:58:30;24.20;99.90
23283;DHT22;11810;51.178;3.878;2022-09-13T14:01:01;24.20;99.90
23283;DHT22;11810;51.178;3.878;2022-09-13T14:03:31;24.00;99.90
23283;DHT22;11810;51.178;3.878;2022-09-13T14:09:11;24.10;99.90
23283;DHT22;11810;51.178;3.878;2022-09-13T14:19:46;23.80;99.90
23283;DHT22;11810;51.178;3.878;2022-09-13T14:22:26;23.80;99.90
23283;DHT22;11810;51.178;3.878;2022-09-13T14:24:54;23.80;99.90
23283;DHT22;11810;51.178;3.878;2022-09-13T14:27:26;23.70;99.90
23283;DHT22;11810;51.178;3.878;2022-09-13T14:29:59;23.80;99.90
23283;DHT22;11810;51.178;3.878;2022-09-13T14:32:28;23.90;99.90
23283;DHT22;11810;51.178;3.878;2022-09-13T14:35:04;23.90;99.90
23283;DHT22;11810;51.178;3.878;2022-09-13T14:37:33;23.70;99.90
23283;DHT22;11810;51.178;3.878;2022-09-13T14:40:15;23.60;99.90
23283;DHT22;11810;51.178;3.878;2022-09-13T14:42:43;23.80;99.90
23283;DHT22;11810;51.178;3.878;2022-09-13T14:45:19;23.80;99.90
23283;DHT22;11810;51.178;3.878;2022-09-13T14:47:46;23.80;99.90
23283;DHT22;11810;51.178;3.878;2022-09-13T14:50:19;23.80;99.90
23283;DHT22;11810;51.178;3.878;2022-09-13T14:55:26;23.80;99.90
23283;DHT22;11810;51.178;3.878;2022-09-13T14:57:58;23.50;99.90
23283;DHT22;11810;51.178;3.878;2022-09-13T15:00:29;23.60;99.90
23283;DHT22;11810;51.178;3.878;2022-09-13T15:02:59;23.40;99.90
23283;DHT22;11810;51.178;3.878;2022-09-13T15:05:30;23.50;99.90
23283;DHT22;11810;51.178;3.878;2022-09-13T15:07:56;23.40;99.90
23283;DHT22;11810;51.178;3.878;2022-09-13T15:10:25;23.40;99.90
23283;DHT22;11810;51.178;3.878;2022-09-13T15:23:37;23.30;99.90
23283;DHT22;11810;51.178;3.878;2022-09-13T15:26:12;23.30;99.90
23283;DHT22;11810;51.178;3.878;2022-09-13T15:31:18;23.30;99.90
23283;DHT22;11810;51.178;3.878;2022-09-13T15:33:44;23.40;99.90
23283;DHT22;11810;51.178;3.878;2022-09-13T15:41:39;23.50;99.90
23283;DHT22;11810;51.178;3.878;2022-09-13T15:44:08;23.40;99.90
23283;DHT22;11810;51.178;3.878;2022-09-13T15:46:54;23.40;99.90
23283;DHT22;11810;51.178;3.878;2022-09-13T15:49:23;23.40;99.90
23283;DHT22;11810;51.178;3.878;2022-09-13T15:51:56;23.50;99.90
23283;DHT22;11810;51.178;3.878;2022-09-13T15:54:23;23.30;99.90
23283;DHT22;11810;51.178;3.878;2022-09-13T15:56:50;23.40;99.90
23283;DHT22;11810;51.178;3.878;2022-09-13T15:59:19;23.30;99.90
23283;DHT22;11810;51.178;3.878;2022-09-13T16:01:48;23.20;99.90
23283;DHT22;11810;51.178;3.878;2022-09-13T16:04:14;23.00;99.90
23283;DHT22;11810;51.178;3.878;2022-09-13T16:06:41;23.00;99.90
23283;DHT22;11810;51.178;3.878;2022-09-13T16:09:21;22.90;99.90
23283;DHT22;11810;51.178;3.878;2022-09-13T16:11:48;22.60;99.90
23283;DHT22;11810;51.178;3.878;2022-09-13T16:14:15;22.50;99.90
23283;DHT22;11810;51.178;3.878;2022-09-13T16:16:41;22.40;99.90
23283;DHT22;11810;51.178;3.878;2022-09-13T16:19:33;22.10;99.90
23283;DHT22;11810;51.178;3.878;2022-09-13T16:21:59;22.00;99.90
23283;DHT22;11810;51.178;3.878;2022-09-13T16:24:25;21.90;99.90
23283;DHT22;11810;51.178;3.878;2022-09-13T16:26:52;21.70;99.90
23283;DHT22;11810;51.178;3.878;2022-09-13T16:29:18;21.50;99.90
23283;DHT22;11810;51.178;3.878;2022-09-13T16:31:44;21.40;99.90
23283;DHT22;11810;51.178;3.878;2022-09-13T16:34:09;21.20;99.90
23283;DHT22;11810;51.178;3.878;2022-09-13T16:36:36;21.20;99.90
23283;DHT22;11810;51.178;3.878;2022-09-13T16:39:02;21.10;99.90
23283;DHT22;11810;51.178;3.878;2022-09-13T16:41:28;21.10;99.90
23283;DHT22;11810;51.178;3.878;2022-09-13T16:43:54;21.10;99.90
23283;DHT22;11810;51.178;3.878;2022-09-13T16:46:20;20.90;99.90
23283;DHT22;11810;51.178;3.878;2022-09-13T16:48:55;20.90;99.90
23283;DHT22;11810;51.178;3.878;2022-09-13T16:51:22;20.90;99.90
23283;DHT22;11810;51.178;3.878;2022-09-13T16:53:50;20.70;99.90
23283;DHT22;11810;51.178;3.878;2022-09-13T16:56:19;20.80;99.90
23283;DHT22;11810;51.178;3.878;2022-09-13T16:58:46;20.90;99.90
23283;DHT22;11810;51.178;3.878;2022-09-13T17:01:16;20.80;99.90
23283;DHT22;11810;51.178;3.878;2022-09-13T17:03:42;20.90;99.90
23283;DHT22;11810;51.178;3.878;2022-09-13T17:06:10;20.80;99.90
23283;DHT22;11810;51.178;3.878;2022-09-13T17:08:37;20.80;99.90
23283;DHT22;11810;51.178;3.878;2022-09-13T17:11:09;20.70;99.90
23283;DHT22;11810;51.178;3.878;2022-09-13T17:13:36;20.50;99.90
23283;DHT22;11810;51.178;3.878;2022-09-13T17:16:04;20.30;99.90
23283;DHT22;11810;51.178;3.878;2022-09-13T17:18:31;20.30;99.90
23283;DHT22;11810;51.178;3.878;2022-09-13T17:20:58;20.30;99.90
23283;DHT22;11810;51.178;3.878;2022-09-13T17:23:25;20.30;99.90
23283;DHT22;11810;51.178;3.878;2022-09-13T17:25:51;20.30;99.90
23283;DHT22;11810;51.178;3.878;2022-09-13T17:28:18;20.30;99.90
23283;DHT22;11810;51.178;3.878;2022-09-13T17:30:45;20.20;99.90
23283;DHT22;11810;51.178;3.878;2022-09-13T17:33:12;20.00;99.90
23283;DHT22;11810;51.178;3.878;2022-09-13T17:35:38;19.90;99.90
23283;DHT22;11810;51.178;3.878;2022-09-13T17:38:04;20.00;99.90
23283;DHT22;11810;51.178;3.878;2022-09-13T17:40:31;20.00;99.90
23283;DHT22;11810;51.178;3.878;2022-09-13T17:42:58;19.90;99.90
23283;DHT22;11810;51.178;3.878;2022-09-13T17:45:24;19.90;99.90
23283;DHT22;11810;51.178;3.878;2022-09-13T17:47:54;19.80;99.90
23283;DHT22;11810;51.178;3.878;2022-09-13T17:50:21;19.80;99.90
23283;DHT22;11810;51.178;3.878;2022-09-13T17:52:49;19.80;99.90
23283;DHT22;11810;51.178;3.878;2022-09-13T17:55:16;19.80;99.90
23283;DHT22;11810;51.178;3.878;2022-09-13T17:57:42;19.80;99.90
23283;DHT22;11810;51.178;3.878;2022-09-13T18:00:12;19.80;99.90
23283;DHT22;11810;51.178;3.878;2022-09-13T18:02:38;19.70;99.90
23283;DHT22;11810;51.178;3.878;2022-09-13T18:05:04;19.80;99.90
23283;DHT22;11810;51.178;3.878;2022-09-13T18:07:30;19.70;99.90
23283;DHT22;11810;51.178;3.878;2022-09-13T18:09:56;19.80;99.90
23283;DHT22;11810;51.178;3.878;2022-09-13T18:12:22;19.80;99.90
23283;DHT22;11810;51.178;3.878;2022-09-13T18:14:48;19.80;99.90
23283;DHT22;11810;51.178;3.878;2022-09-13T18:17:14;19.60;99.90
23283;DHT22;11810;51.178;3.878;2022-09-13T18:19:40;19.60;99.90
23283;DHT22;11810;51.178;3.878;2022-09-13T18:22:07;19.60;99.90
23283;DHT22;11810;51.178;3.878;2022-09-13T18:24:34;19.60;99.90
23283;DHT22;11810;51.178;3.878;2022-09-13T18:27:01;19.50;99.90
23283;DHT22;11810;51.178;3.878;2022-09-13T18:29:27;19.50;99.90
23283;DHT22;11810;51.178;3.878;2022-09-13T18:31:56;19.40;99.90
23283;DHT22;11810;51.178;3.878;2022-09-13T18:34:22;19.50;99.90
23283;DHT22;11810;51.178;3.878;2022-09-13T18:36:48;19.40;99.90
23283;DHT22;11810;51.178;3.878;2022-09-13T18:39:19;19.50;99.90
23283;DHT22;11810;51.178;3.878;2022-09-13T18:41:47;19.60;99.90
23283;DHT22;11810;51.178;3.878;2022-09-13T18:44:14;19.70;99.90
23283;DHT22;11810;51.178;3.878;2022-09-13T18:46:41;19.60;99.90
23283;DHT22;11810;51.178;3.878;2022-09-13T18:49:08;19.50;99.90
23283;DHT22;11810;51.178;3.878;2022-09-13T18:51:39;19.60;99.90
23283;DHT22;11810;51.178;3.878;2022-09-13T18:54:06;19.50;99.90
23283;DHT22;11810;51.178;3.878;2022-09-13T18:56:33;19.40;99.90
23283;DHT22;11810;51.178;3.878;2022-09-13T18:59:02;19.40;99.90
23283;DHT22;11810;51.178;3.878;2022-09-13T19:01:31;19.30;99.90
23283;DHT22;11810;51.178;3.878;2022-09-13T19:04:03;19.30;99.90
23283;DHT22;11810;51.178;3.878;2022-09-13T19:08:58;19.20;99.90
23283;DHT22;11810;51.178;3.878;2022-09-13T19:11:25;19.10;99.90
23283;DHT22;11810;51.178;3.878;2022-09-13T19:13:52;19.00;99.90
23283;DHT22;11810;51.178;3.878;2022-09-13T19:16:19;18.90;99.90
23283;DHT22;11810;51.178;3.878;2022-09-13T19:18:46;18.90;99.90